Time;durP1;ratioP1;P1;durP2;ratioP2;P2;SDS_P1;SDS_P2;PMS_P1;PMS_P2;Temp;Humidity;BMP_temperature;BMP_pressure;BME280_temperature;BME280_humidity;BME280_pressure;Samples;Min_cycle;Max_cycle;Signal;HPM_P1;HPM_P2
2023/09/12 00:03:28;;;;;;;2.03;1.93;;;17.90;99.90;;;;;;5293925;23;20499;-87
2023/09/12 00:05:59;;;;;;;1.03;1.03;;;17.80;99.90;;;;;;5228893;23;20499;-88
2023/09/12 00:08:27;;;;;;;1.50;1.40;;;17.80;99.90;;;;;;4991799;28;20457;-86
2023/09/12 00:11:04;;;;;;;2.37;2.27;;;17.90;99.90;;;;;;4991830;28;20462;-85
2023/09/12 00:32:22;;;;;;;4.20;3.83;;;17.50;99.90;;;;;;4996797;28;20444;-81
2023/09/12 00:34:50;;;;;;;4.10;3.70;;;17.50;99.90;;;;;;4991689;28;20490;-87
2023/09/12 00:37:17;;;;;;;2.30;2.20;;;17.50;99.90;;;;;;5017280;23;20478;-84
2023/09/12 00:39:44;;;;;;;2.20;2.00;;;17.50;99.90;;;;;;5014438;28;20431;-85
2023/09/12 00:42:11;;;;;;;3.27;3.17;;;17.50;99.90;;;;;;5315052;23;20506;-89
2023/09/12 00:44:38;;;;;;;2.23;2.03;;;17.40;99.90;;;;;;4993485;28;20515;-89
2023/09/12 00:49:48;;;;;;;1.43;1.43;;;17.40;99.90;;;;;;5585778;23;20431;-80
2023/09/12 00:52:25;;;;;;;4.70;3.60;;;17.40;99.90;;;;;;5157287;23;20482;-80
2023/09/12 00:54:53;;;;;;;5.13;3.73;;;17.30;99.90;;;;;;5010114;28;20467;-80
2023/09/12 00:57:21;;;;;;;5.20;4.20;;;17.30;99.90;;;;;;5312272;23;20544;-83
2023/09/12 01:02:25;;;;;;;4.43;4.13;;;17.30;99.90;;;;;;4985213;28;20427;-83
2023/09/12 01:07:42;;;;;;;1.93;1.87;;;17.20;99.90;;;;;;4946726;29;20388;-85
2023/09/12 01:10:09;;;;;;;2.97;2.87;;;17.20;99.90;;;;;;4949566;29;20470;-86
2023/09/12 01:12:37;;;;;;;2.87;2.70;;;17.20;99.90;;;;;;4943570;29;20529;-86
2023/09/12 01:17:46;;;;;;;2.73;2.57;;;17.10;99.90;;;;;;5420982;23;20603;-88
2023/09/12 01:20:25;;;;;;;4.50;2.50;;;17.10;99.90;;;;;;5009087;28;20451;-88
2023/09/12 01:22:56;;;;;;;2.70;2.47;;;17.10;99.90;;;;;;5171466;23;20896;-85
2023/09/12 01:28:09;;;;;;;3.27;3.07;;;17.10;99.90;;;;;;5525981;22;20480;-83
2023/09/12 01:33:09;;;;;;;1.60;1.50;;;17.00;99.90;;;;;;5270214;23;20464;-85
2023/09/12 01:35:37;;;;;;;2.07;1.97;;;17.00;99.90;;;;;;4988938;28;21175;-82
2023/09/12 01:40:48;;;;;;;1.70;1.60;;;17.00;99.90;;;;;;5115929;23;20465;-85
2023/09/12 01:43:18;;;;;;;1.83;1.73;;;16.90;99.90;;;;;;4989865;28;20864;-84
2023/09/12 01:56:32;;;;;;;2.13;2.00;;;16.90;99.90;;;;;;5537353;23;20627;-86
2023/09/12 01:59:00;;;;;;;3.57;3.27;;;16.90;99.90;;;;;;5109047;22;20745;-86
2023/09/12 02:01:27;;;;;;;4.03;3.67;;;17.00;99.90;;;;;;5132103;23;20558;-85
2023/09/12 02:03:54;;;;;;;2.90;2.70;;;17.00;99.90;;;;;;5135638;23;20495;-83
2023/09/12 02:11:46;;;;;;;3.60;3.40;;;16.80;99.90;;;;;;5537682;23;20500;-85
2023/09/12 02:14:13;;;;;;;3.80;3.37;;;16.80;99.90;;;;;;5414204;23;20490;-83
2023/09/12 02:16:40;;;;;;;3.00;2.80;;;16.90;99.90;;;;;;5805606;23;20472;-84
2023/09/12 02:21:52;;;;;;;3.80;3.50;;;16.90;99.90;;;;;;5572482;23;20606;-83
2023/09/12 02:24:21;;;;;;;3.50;3.30;;;16.90;99.90;;;;;;5427106;23;20497;-86
2023/09/12 02:26:48;;;;;;;2.10;2.00;;;16.80;99.90;;;;;;4988775;28;20456;-87
2023/09/12 02:29:15;;;;;;;3.00;2.70;;;16.80;99.90;;;;;;5072406;23;20612;-87
2023/09/12 02:31:42;;;;;;;3.53;3.23;;;16.80;99.90;;;;;;4985774;28;20472;-86
2023/09/12 02:34:09;;;;;;;3.97;3.70;;;16.80;99.90;;;;;;5417889;23;20440;-83
2023/09/12 02:39:17;;;;;;;5.30;5.00;;;16.80;99.90;;;;;;5375407;23;20484;-83
2023/09/12 02:41:44;;;;;;;3.50;3.30;;;16.80;99.90;;;;;;5565489;22;20480;-86
2023/09/12 02:44:11;;;;;;;1.80;1.63;;;16.80;99.90;;;;;;5115955;23;20576;-85
2023/09/12 02:46:38;;;;;;;2.30;2.20;;;16.70;99.90;;;;;;4982227;28;20480;-90
2023/09/12 02:49:05;;;;;;;4.13;3.03;;;16.70;99.90;;;;;;4986548;28;20448;-85
2023/09/12 02:51:41;;;;;;;2.93;2.73;;;16.70;99.90;;;;;;5062624;23;20524;-89
2023/09/12 02:54:11;;;;;;;4.17;3.93;;;16.60;99.90;;;;;;5281467;23;20549;-87
2023/09/12 02:56:38;;;;;;;1.43;1.40;;;16.60;99.90;;;;;;5206572;23;20560;-87
2023/09/12 02:59:09;;;;;;;2.50;2.40;;;16.60;99.90;;;;;;5096712;23;20529;-88
2023/09/12 03:01:37;;;;;;;2.70;2.60;;;16.50;99.90;;;;;;5150564;23;20585;-86
2023/09/12 03:04:04;;;;;;;1.73;1.63;;;16.40;99.90;;;;;;5323175;23;20500;-87
2023/09/12 03:09:06;;;;;;;2.97;2.87;;;16.30;99.90;;;;;;5148663;23;20473;-84
2023/09/12 03:11:55;;;;;;;2.80;2.60;;;16.40;99.90;;;;;;5087416;23;20476;-86
2023/09/12 03:14:23;;;;;;;3.03;2.93;;;16.30;99.90;;;;;;4986237;28;20452;-85
2023/09/12 03:22:19;;;;;;;4.77;4.43;;;16.10;99.90;;;;;;5887689;23;20452;-84
2023/09/12 03:24:46;;;;;;;4.83;2.80;;;16.10;99.90;;;;;;5769573;23;20711;-84
2023/09/12 03:27:16;;;;;;;1.07;1.07;;;16.10;99.90;;;;;;4979902;28;20555;-86
2023/09/12 03:29:47;;;;;;;2.23;2.10;;;16.10;99.90;;;;;;4979238;28;20663;-84
2023/09/12 03:34:55;;;;;;;3.50;3.20;;;16.00;99.90;;;;;;5250252;23;20504;-86
2023/09/12 03:37:27;;;;;;;3.40;3.10;;;16.00;99.90;;;;;;4992812;28;20504;-87
2023/09/12 03:39:54;;;;;;;3.70;3.47;;;15.90;99.90;;;;;;4992683;28;20457;-89
2023/09/12 03:42:21;;;;;;;6.73;4.90;;;15.90;99.90;;;;;;4981061;28;20503;-86
2023/09/12 03:44:50;;;;;;;2.00;1.90;;;15.90;99.90;;;;;;4983464;28;20551;-88
2023/09/12 03:47:17;;;;;;;2.20;2.10;;;15.90;99.90;;;;;;4988216;28;20495;-85
2023/09/12 03:49:44;;;;;;;3.07;2.87;;;16.10;99.90;;;;;;4990201;28;20503;-87
2023/09/12 03:52:11;;;;;;;3.83;3.53;;;15.90;99.90;;;;;;4977854;28;20528;-86
2023/09/12 03:54:38;;;;;;;2.63;2.43;;;15.90;99.90;;;;;;4976162;28;20517;-85
2023/09/12 03:57:05;;;;;;;2.07;1.97;;;15.90;99.90;;;;;;4978224;28;20499;-86
2023/09/12 03:59:32;;;;;;;1.63;1.53;;;16.00;99.90;;;;;;5087157;22;20773;-85
2023/09/12 04:02:02;;;;;;;1.30;1.30;;;15.90;99.90;;;;;;4985686;28;20456;-86
2023/09/12 04:04:29;;;;;;;4.57;2.80;;;15.80;99.90;;;;;;4989276;28;20433;-82
2023/09/12 04:06:57;;;;;;;1.77;1.70;;;15.90;99.90;;;;;;4994064;28;20480;-83
2023/09/12 04:09:24;;;;;;;2.70;2.60;;;15.80;99.90;;;;;;4993775;28;20452;-85
2023/09/12 04:14:26;;;;;;;3.23;2.97;;;15.80;99.90;;;;;;5060567;23;20515;-82
2023/09/12 04:16:53;;;;;;;2.97;2.27;;;15.80;99.90;;;;;;4989921;28;20484;-83
2023/09/12 04:19:20;;;;;;;1.83;1.73;;;15.70;99.90;;;;;;5364958;23;20489;-80
2023/09/12 04:21:46;;;;;;;1.80;1.70;;;15.70;99.90;;;;;;5086053;23;20496;-82
2023/09/12 04:24:15;;;;;;;11.03;2.03;;;15.80;99.90;;;;;;4981946;28;20453;-84
2023/09/12 04:26:43;;;;;;;3.70;3.50;;;15.60;99.90;;;;;;5125291;23;20500;-82
2023/09/12 04:29:11;;;;;;;1.80;1.70;;;15.70;99.90;;;;;;4996916;28;20516;-84
2023/09/12 04:31:37;;;;;;;1.10;1.10;;;15.70;99.90;;;;;;5292065;23;20476;-80
2023/09/12 04:34:05;;;;;;;8.00;3.03;;;15.70;99.90;;;;;;4976931;28;20438;-83
2023/09/12 04:36:32;;;;;;;2.07;1.97;;;15.70;99.90;;;;;;4980083;28;20431;-80
2023/09/12 04:39:00;;;;;;;1.97;1.87;;;15.70;99.90;;;;;;5131382;23;20473;-84
2023/09/12 04:41:38;;;;;;;2.73;2.43;;;15.70;99.90;;;;;;5264554;23;20656;-87
2023/09/12 04:44:05;;;;;;;2.90;2.70;;;15.80;99.90;;;;;;5119219;23;20501;-84
2023/09/12 04:46:32;;;;;;;4.50;2.27;;;15.80;99.90;;;;;;5580894;23;20862;-84
2023/09/12 04:51:30;;;;;;;2.60;2.50;;;15.80;99.90;;;;;;4934370;28;20503;-83
2023/09/12 04:53:57;;;;;;;3.00;2.80;;;15.80;99.90;;;;;;4933817;29;20445;-85
2023/09/12 04:56:25;;;;;;;3.93;3.73;;;15.90;99.90;;;;;;5053948;23;20596;-88
2023/09/12 04:58:53;;;;;;;3.10;3.00;;;16.00;99.90;;;;;;5001962;28;20463;-85
2023/09/12 05:01:20;;;;;;;2.00;1.90;;;16.10;99.90;;;;;;5006688;28;20455;-85
2023/09/12 05:03:47;;;;;;;2.77;2.67;;;16.10;99.90;;;;;;5003313;28;20447;-82
2023/09/12 05:06:17;;;;;;;3.00;2.63;;;16.30;99.90;;;;;;4986970;28;20877;-83
2023/09/12 05:08:44;;;;;;;3.47;3.27;;;16.40;99.90;;;;;;4988272;28;20468;-79
2023/09/12 05:11:11;;;;;;;1.73;1.63;;;16.50;99.90;;;;;;4986883;28;20451;-83
2023/09/12 05:13:38;;;;;;;1.93;1.83;;;16.60;99.90;;;;;;4991830;28;20472;-82
2023/09/12 05:16:05;;;;;;;4.80;4.50;;;16.60;99.90;;;;;;4987174;28;20452;-80
2023/09/12 05:18:32;;;;;;;2.43;2.30;;;16.80;99.90;;;;;;4991412;28;20570;-80
2023/09/12 05:20:59;;;;;;;3.27;3.07;;;17.00;99.90;;;;;;4995217;28;20455;-82
2023/09/12 05:23:26;;;;;;;2.07;1.97;;;17.00;99.90;;;;;;5000036;28;20418;-82
2023/09/12 05:25:54;;;;;;;2.30;2.20;;;17.20;99.90;;;;;;4988587;28;20934;-83
2023/09/12 05:28:20;;;;;;;3.60;3.40;;;17.30;99.90;;;;;;4990718;28;20512;-84
2023/09/12 05:30:48;;;;;;;4.13;3.80;;;17.40;99.90;;;;;;4985346;28;20454;-86
2023/09/12 05:33:15;;;;;;;3.47;2.70;;;17.50;99.90;;;;;;4995566;28;20460;-86
2023/09/12 05:35:44;;;;;;;2.67;2.57;;;17.80;99.90;;;;;;4988387;28;20553;-83
2023/09/12 05:38:11;;;;;;;2.60;2.40;;;17.80;99.90;;;;;;4982927;28;20473;-84
2023/09/12 05:40:38;;;;;;;5.40;5.00;;;17.90;99.90;;;;;;4994538;28;20535;-85
2023/09/12 05:43:05;;;;;;;2.60;2.50;;;18.00;99.90;;;;;;4985433;28;20539;-82
2023/09/12 05:45:32;;;;;;;1.63;1.53;;;18.20;99.90;;;;;;4997775;28;20545;-84
2023/09/12 05:48:00;;;;;;;2.67;2.53;;;18.40;99.90;;;;;;4982016;28;20469;-85
2023/09/12 05:50:27;;;;;;;1.83;1.73;;;18.60;99.90;;;;;;4978147;28;21017;-83
2023/09/12 05:52:54;;;;;;;2.40;2.30;;;18.80;99.90;;;;;;4985533;28;20425;-84
2023/09/12 05:55:21;;;;;;;3.23;3.03;;;18.90;99.90;;;;;;4990524;28;20537;-82
2023/09/12 05:57:52;;;;;;;3.37;3.17;;;19.10;99.90;;;;;;4988240;28;20434;-84
2023/09/12 06:00:20;;;;;;;2.23;2.13;;;19.20;99.90;;;;;;4991680;28;20656;-82
2023/09/12 06:02:47;;;;;;;1.37;1.33;;;19.40;99.90;;;;;;5003950;28;20429;-80
2023/09/12 06:05:16;;;;;;;2.83;2.30;;;19.60;99.90;;;;;;5009697;28;20468;-83
2023/09/12 06:07:43;;;;;;;1.90;1.80;;;19.70;99.90;;;;;;5014957;28;20447;-86
2023/09/12 06:10:10;;;;;;;1.77;1.67;;;19.70;99.90;;;;;;5011089;28;20407;-85
2023/09/12 06:12:37;;;;;;;1.87;1.80;;;19.80;99.90;;;;;;5018287;28;20452;-80
2023/09/12 06:15:05;;;;;;;1.20;1.20;;;20.10;99.90;;;;;;5017370;28;20414;-83
2023/09/12 06:17:31;;;;;;;2.80;2.70;;;20.30;99.90;;;;;;5008931;28;20509;-82
2023/09/12 06:19:59;;;;;;;1.40;1.33;;;20.40;99.90;;;;;;5005648;28;20526;-80
2023/09/12 06:22:26;;;;;;;1.57;1.50;;;20.60;99.90;;;;;;5003711;28;20578;-87
2023/09/12 06:24:53;;;;;;;8.03;3.17;;;20.70;99.90;;;;;;5002404;28;20440;-80
2023/09/12 06:27:20;;;;;;;1.27;1.27;;;20.80;99.90;;;;;;5006761;28;20422;-85
2023/09/12 06:29:50;;;;;;;1.67;1.57;;;21.10;99.90;;;;;;4991182;28;20449;-83
2023/09/12 06:32:18;;;;;;;3.13;2.90;;;21.40;99.90;;;;;;4998667;28;20477;-84
2023/09/12 06:34:45;;;;;;;1.50;1.47;;;21.80;99.90;;;;;;4999727;28;20444;-86
2023/09/12 06:37:13;;;;;;;1.60;1.50;;;22.40;99.90;;;;;;5459835;23;21777;-79
2023/09/12 06:39:40;;;;;;;2.00;1.90;;;22.50;99.90;;;;;;5152657;22;20769;-86
2023/09/12 06:42:08;;;;;;;1.87;1.73;;;22.90;99.90;;;;;;4985430;28;20464;-87
2023/09/12 06:44:35;;;;;;;1.10;1.10;;;23.10;99.90;;;;;;4987979;28;20471;-88
2023/09/12 06:47:06;;;;;;;2.60;2.50;;;23.60;99.90;;;;;;4990610;28;20506;-83
2023/09/12 06:52:04;;;;;;;1.87;1.77;;;24.20;99.90;;;;;;5092693;22;20472;-84
2023/09/12 06:57:06;;;;;;;2.90;2.60;;;24.60;99.90;;;;;;5075195;23;20424;-85
2023/09/12 06:59:34;;;;;;;2.20;2.10;;;25.00;99.90;;;;;;4993875;28;20467;-83
2023/09/12 07:02:04;;;;;;;3.67;3.37;;;25.70;99.90;;;;;;5071248;22;20458;-80
2023/09/12 07:04:31;;;;;;;1.53;1.43;;;26.10;99.90;;;;;;4992841;28;20433;-84
2023/09/12 07:09:39;;;;;;;1.63;1.53;;;27.40;99.50;;;;;;5042118;23;20627;-87
2023/09/12 07:12:07;;;;;;;2.20;2.10;;;27.80;98.40;;;;;;5274444;23;20481;-84
2023/09/12 07:14:34;;;;;;;3.37;3.17;;;27.50;98.40;;;;;;5414895;23;20434;-87
2023/09/12 07:30:31;;;;;;;1.83;1.70;;;29.70;91.50;;;;;;5363133;23;20499;-86
2023/09/12 07:38:21;;;;;;;1.50;1.40;;;30.80;88.10;;;;;;5937836;23;21807;-86
2023/09/12 07:40:49;;;;;;;3.67;3.47;;;30.90;85.20;;;;;;5251502;23;20809;-81
2023/09/12 08:04:15;;;;;;;1.43;1.33;;;32.00;76.80;;;;;;5573541;23;20498;-86
2023/09/12 08:06:45;;;;;;;2.10;2.00;;;32.50;75.40;;;;;;5521633;23;20468;-85
2023/09/12 08:12:06;;;;;;;3.03;2.93;;;31.80;76.90;;;;;;5289444;23;20551;-81
2023/09/12 08:17:09;;;;;;;1.83;1.73;;;31.80;77.20;;;;;;5644593;23;20521;-87
2023/09/12 08:19:36;;;;;;;2.90;2.70;;;32.10;75.00;;;;;;4988360;28;20475;-87
2023/09/12 08:22:03;;;;;;;1.83;1.73;;;32.60;74.80;;;;;;4979716;28;20468;-82
2023/09/12 08:24:31;;;;;;;2.17;2.07;;;31.70;74.50;;;;;;4986361;28;20460;-83
2023/09/12 08:26:58;;;;;;;1.60;1.50;;;32.20;73.70;;;;;;4977934;28;20491;-86
2023/09/12 08:29:25;;;;;;;3.83;3.53;;;31.30;75.10;;;;;;5373233;23;21173;-84
2023/09/12 08:31:53;;;;;;;2.03;1.93;;;32.00;73.80;;;;;;4982631;28;20508;-88
2023/09/12 08:37:07;;;;;;;1.70;1.60;;;31.40;73.80;;;;;;4977428;28;20536;-83
2023/09/12 08:39:45;;;;;;;1.63;1.57;;;31.40;75.20;;;;;;4984550;28;20456;-82
2023/09/12 08:42:15;;;;;;;1.20;1.20;;;31.70;73.80;;;;;;4979982;28;20839;-85
2023/09/12 08:44:43;;;;;;;2.97;2.57;;;31.60;74.30;;;;;;4979323;28;20675;-83
2023/09/12 08:47:11;;;;;;;1.90;1.80;;;32.30;73.20;;;;;;4972987;28;20480;-84
2023/09/12 08:49:39;;;;;;;2.63;2.53;;;32.50;71.30;;;;;;4975980;28;20457;-86
2023/09/12 08:54:39;;;;;;;2.17;2.07;;;32.40;72.70;;;;;;4989643;28;20512;-85
2023/09/12 08:57:10;;;;;;;2.73;2.60;;;32.60;72.40;;;;;;4995907;28;20853;-83
2023/09/12 08:59:38;;;;;;;1.60;1.50;;;32.60;72.20;;;;;;4992918;28;20670;-85
2023/09/12 09:04:49;;;;;;;2.40;2.30;;;32.40;72.30;;;;;;5578996;23;20973;-84
2023/09/12 09:07:19;;;;;;;2.10;1.90;;;32.60;71.40;;;;;;4982350;28;20457;-86
2023/09/12 09:09:48;;;;;;;1.63;1.53;;;33.40;69.70;;;;;;4977140;28;20449;-83
2023/09/12 09:14:57;;;;;;;2.00;1.90;;;33.20;69.70;;;;;;5205124;23;20480;-86
2023/09/12 09:17:25;;;;;;;2.20;2.10;;;32.80;71.60;;;;;;4980614;28;20491;-84
2023/09/12 09:20:05;;;;;;;1.63;1.53;;;32.70;72.00;;;;;;4977457;28;20440;-87
2023/09/12 09:22:32;;;;;;;1.77;1.67;;;32.60;72.90;;;;;;4979895;28;20490;-83
2023/09/12 09:25:20;;;;;;;1.90;1.80;;;32.70;72.40;;;;;;4978031;28;20533;-85
2023/09/12 09:27:47;;;;;;;3.10;2.90;;;32.50;72.60;;;;;;4978102;28;20454;-84
2023/09/12 09:30:13;;;;;;;1.77;1.67;;;32.70;74.00;;;;;;4980358;28;20426;-84
2023/09/12 09:32:41;;;;;;;2.50;2.40;;;32.10;74.40;;;;;;4977648;28;20481;-86
2023/09/12 09:35:09;;;;;;;1.90;1.80;;;32.00;74.70;;;;;;4978578;28;20424;-82
2023/09/12 09:37:36;;;;;;;1.53;1.43;;;31.60;74.10;;;;;;4990009;28;20522;-80
2023/09/12 09:40:07;;;;;;;1.30;1.30;;;31.30;74.00;;;;;;4994471;28;20462;-80
2023/09/12 09:42:34;;;;;;;2.10;2.00;;;31.70;74.70;;;;;;4985930;28;20532;-85
2023/09/12 09:45:01;;;;;;;2.73;2.53;;;31.70;75.30;;;;;;5100799;23;20477;-84
2023/09/12 09:47:28;;;;;;;1.80;1.70;;;31.70;74.70;;;;;;5147749;23;20884;-80
2023/09/12 09:49:59;;;;;;;2.23;2.13;;;30.90;76.90;;;;;;5008054;23;20485;-85
2023/09/12 09:52:27;;;;;;;3.93;2.47;;;30.80;78.70;;;;;;5293260;23;20690;-86
2023/09/12 09:54:54;;;;;;;2.00;1.90;;;30.30;80.10;;;;;;4982772;28;20859;-85
2023/09/12 09:57:26;;;;;;;2.80;2.60;;;30.50;80.60;;;;;;4983076;28;20451;-84
2023/09/12 09:59:54;;;;;;;2.90;2.80;;;30.60;77.90;;;;;;4981458;28;20597;-83
2023/09/12 10:02:25;;;;;;;1.20;1.20;;;30.60;79.50;;;;;;4981193;28;20551;-83
2023/09/12 10:07:33;;;;;;;1.23;1.20;;;30.60;78.50;;;;;;5498679;23;20535;-82
2023/09/12 10:10:03;;;;;;;2.27;2.17;;;30.50;76.90;;;;;;4993973;28;20515;-81
2023/09/12 10:12:38;;;;;;;2.60;1.40;;;30.40;78.10;;;;;;4993378;28;20523;-81
2023/09/12 10:15:07;;;;;;;1.70;1.60;;;30.60;78.70;;;;;;4992664;28;20440;-85
2023/09/12 10:17:37;;;;;;;2.00;1.90;;;30.60;76.80;;;;;;4984557;28;20523;-85
2023/09/12 10:20:11;;;;;;;2.83;2.63;;;30.80;76.20;;;;;;4986493;28;20427;-84
2023/09/12 10:22:55;;;;;;;2.07;1.97;;;31.00;73.30;;;;;;4990914;28;20430;-85
2023/09/12 10:25:24;;;;;;;2.13;2.03;;;30.90;75.20;;;;;;4997748;28;20456;-83
2023/09/12 10:27:52;;;;;;;2.30;2.20;;;31.10;75.60;;;;;;4999982;28;20524;-83
2023/09/12 10:30:22;;;;;;;1.70;1.60;;;31.00;69.20;;;;;;4998410;28;20407;-82
2023/09/12 10:32:50;;;;;;;2.87;2.67;;;31.00;70.10;;;;;;5033722;23;20504;-83
2023/09/12 10:35:17;;;;;;;2.33;2.23;;;30.90;69.80;;;;;;5113037;23;20486;-83
2023/09/12 10:37:48;;;;;;;2.47;2.37;;;30.90;69.40;;;;;;5011490;28;20426;-84
2023/09/12 10:40:17;;;;;;;1.73;1.63;;;30.70;68.50;;;;;;4999851;28;20506;-84
2023/09/12 10:42:45;;;;;;;1.33;1.23;;;30.80;68.50;;;;;;4998692;28;20422;-84
2023/09/12 10:45:13;;;;;;;1.80;1.70;;;30.90;65.60;;;;;;5004086;28;20451;-84
2023/09/12 10:50:09;;;;;;;3.23;3.03;;;30.60;66.00;;;;;;4977602;28;20427;-85
2023/09/12 10:52:39;;;;;;;1.97;1.87;;;30.40;67.50;;;;;;5058805;23;20546;-81
2023/09/12 10:55:16;;;;;;;1.43;1.40;;;30.20;68.00;;;;;;5039335;23;20481;-84
2023/09/12 10:58:07;;;;;;;1.83;1.73;;;30.10;68.70;;;;;;4979520;28;20506;-81
2023/09/12 11:00:34;;;;;;;1.70;1.60;;;30.10;68.70;;;;;;4976930;28;20444;-88
2023/09/12 11:03:26;;;;;;;1.77;1.67;;;30.00;68.30;;;;;;4979204;28;20416;-88
2023/09/12 11:05:55;;;;;;;1.37;1.37;;;30.30;68.20;;;;;;4973504;28;20417;-81
2023/09/12 11:08:23;;;;;;;1.60;1.50;;;30.30;66.90;;;;;;4973321;28;20404;-81
2023/09/12 11:11:17;;;;;;;1.87;1.77;;;30.40;65.10;;;;;;4979763;28;20432;-81
2023/09/12 11:13:47;;;;;;;2.07;1.97;;;30.30;64.30;;;;;;4981640;28;20435;-86
2023/09/12 11:16:18;;;;;;;1.57;1.47;;;30.40;65.70;;;;;;4974101;28;20448;-81
2023/09/12 11:19:15;;;;;;;2.23;2.10;;;30.30;67.40;;;;;;4981147;28;20420;-81
2023/09/12 11:21:47;;;;;;;1.53;1.43;;;30.10;67.50;;;;;;4975888;28;20540;-84
2023/09/12 11:24:16;;;;;;;1.43;1.33;;;29.80;68.20;;;;;;5245312;23;20550;-87
2023/09/12 11:26:59;;;;;;;2.03;1.93;;;30.00;68.50;;;;;;4982461;28;20541;-87
2023/09/12 11:29:35;;;;;;;1.10;1.10;;;30.20;66.80;;;;;;4974349;28;20439;-82
2023/09/12 11:32:04;;;;;;;1.63;1.53;;;30.30;66.30;;;;;;4977836;28;20489;-85
2023/09/12 11:34:42;;;;;;;1.30;1.30;;;30.40;66.10;;;;;;4981236;28;20459;-85
2023/09/12 11:37:09;;;;;;;2.23;2.13;;;30.30;67.50;;;;;;4981839;28;20636;-79
2023/09/12 11:39:39;;;;;;;1.30;1.30;;;30.20;67.30;;;;;;4976145;28;20415;-87
2023/09/12 11:42:13;;;;;;;2.70;2.13;;;30.20;67.00;;;;;;4980567;28;20423;-85
2023/09/12 11:44:41;;;;;;;2.43;2.23;;;30.20;66.50;;;;;;4984853;28;20403;-80
2023/09/12 11:47:12;;;;;;;1.60;1.50;;;29.90;66.20;;;;;;5191174;23;21579;-89
2023/09/12 11:49:40;;;;;;;2.00;1.90;;;30.00;66.10;;;;;;4992437;28;20452;-85
2023/09/12 11:52:16;;;;;;;2.50;2.40;;;30.00;66.70;;;;;;4989753;28;20451;-87
2023/09/12 11:54:45;;;;;;;3.10;2.93;;;30.20;66.00;;;;;;4994135;28;20438;-86
2023/09/12 11:57:14;;;;;;;2.27;2.07;;;30.10;65.30;;;;;;4995438;28;20456;-82
2023/09/12 11:59:45;;;;;;;35.77;4.27;;;30.10;65.70;;;;;;4989125;28;20448;-84
2023/09/12 12:02:12;;;;;;;4.10;2.93;;;30.30;65.50;;;;;;4987440;28;20465;-86
2023/09/12 12:04:39;;;;;;;1.80;1.70;;;30.40;64.60;;;;;;4988115;28;20908;-84
2023/09/12 12:07:07;;;;;;;1.63;1.53;;;30.50;64.30;;;;;;4995020;28;20465;-84
2023/09/12 12:09:34;;;;;;;1.77;1.67;;;30.60;64.50;;;;;;4988990;28;20599;-87
2023/09/12 12:12:14;;;;;;;2.17;2.07;;;30.50;64.70;;;;;;4981765;28;20408;-87
2023/09/12 12:14:41;;;;;;;1.80;1.70;;;30.50;64.30;;;;;;4987073;28;20439;-83
2023/09/12 12:17:10;;;;;;;1.70;1.60;;;30.50;64.60;;;;;;5002460;28;20502;-80
2023/09/12 12:19:38;;;;;;;1.63;1.57;;;30.60;64.00;;;;;;5069813;23;20500;-81
2023/09/12 12:22:07;;;;;;;2.00;1.90;;;30.50;64.30;;;;;;4995161;28;20764;-86
2023/09/12 12:24:51;;;;;;;1.43;1.33;;;30.70;65.20;;;;;;4986624;28;20525;-85
2023/09/12 12:27:18;;;;;;;1.30;1.30;;;30.60;65.00;;;;;;4980143;28;20542;-86
2023/09/12 12:32:20;;;;;;;1.20;1.20;;;30.50;64.10;;;;;;5307729;23;20518;-83
2023/09/12 12:34:49;;;;;;;1.20;1.20;;;30.80;63.60;;;;;;4985831;28;20451;-82
2023/09/12 12:37:36;;;;;;;1.40;1.30;;;30.40;63.70;;;;;;4988392;28;20591;-82
2023/09/12 12:42:47;;;;;;;1.27;1.27;;;30.50;64.50;;;;;;4955467;28;20446;-87
2023/09/12 12:45:23;;;;;;;2.70;2.60;;;30.70;63.70;;;;;;5197905;23;20481;-85
2023/09/12 12:48:00;;;;;;;2.40;2.30;;;30.80;62.70;;;;;;4987393;28;20485;-84
2023/09/12 12:50:28;;;;;;;1.97;1.87;;;30.60;63.20;;;;;;4987099;28;20747;-84
2023/09/12 12:52:55;;;;;;;1.80;1.70;;;30.80;62.80;;;;;;4994177;28;20454;-86
2023/09/12 12:55:26;;;;;;;3.10;3.00;;;30.70;63.10;;;;;;4997941;28;20509;-84
2023/09/12 12:57:53;;;;;;;2.10;1.90;;;30.80;63.40;;;;;;4997716;28;20646;-87
2023/09/12 13:00:21;;;;;;;1.83;1.73;;;30.80;63.10;;;;;;5000992;28;20615;-84
2023/09/12 13:02:48;;;;;;;10.20;2.80;;;30.60;63.20;;;;;;4998472;28;20461;-82
2023/09/12 13:05:30;;;;;;;1.27;1.27;;;30.20;64.30;;;;;;5004534;28;20812;-85
2023/09/12 13:10:30;;;;;;;2.37;2.27;;;30.20;64.20;;;;;;5282811;23;20853;-85
2023/09/12 13:12:57;;;;;;;2.23;2.10;;;30.20;64.30;;;;;;5092542;23;20485;-86
2023/09/12 13:15:24;;;;;;;1.73;1.63;;;30.00;64.10;;;;;;4985820;28;20434;-88
2023/09/12 13:17:52;;;;;;;2.10;1.97;;;30.00;64.20;;;;;;4981508;28;20432;-87
2023/09/12 13:20:19;;;;;;;1.90;1.80;;;29.80;65.40;;;;;;4970947;28;20460;-82
2023/09/12 13:22:47;;;;;;;3.50;3.20;;;30.00;65.40;;;;;;4980235;28;20460;-87
2023/09/12 13:27:49;;;;;;;3.37;2.37;;;30.40;65.10;;;;;;5284606;23;21612;-86
2023/09/12 13:32:46;;;;;;;1.30;1.20;;;30.20;64.30;;;;;;5147109;23;20454;-82
2023/09/12 13:35:14;;;;;;;1.33;1.30;;;30.30;64.90;;;;;;5170834;23;20566;-81
2023/09/12 13:37:43;;;;;;;1.10;1.10;;;30.30;64.50;;;;;;5236503;23;20451;-85
2023/09/12 13:40:12;;;;;;;1.90;1.80;;;30.50;64.60;;;;;;5251644;23;20455;-84
2023/09/12 13:42:40;;;;;;;2.10;1.63;;;30.30;64.20;;;;;;5344323;23;20794;-80
2023/09/12 13:45:10;;;;;;;2.23;2.13;;;30.50;64.50;;;;;;4992483;23;20487;-81
2023/09/12 13:50:05;;;;;;;1.50;1.30;;;30.30;63.70;;;;;;5033502;23;20467;-82
2023/09/12 13:52:32;;;;;;;2.60;2.50;;;30.20;64.30;;;;;;5377377;23;20502;31
2023/09/12 13:55:03;;;;;;;1.83;1.73;;;30.30;64.60;;;;;;4963968;28;20465;-87
2023/09/12 13:57:31;;;;;;;1.80;1.70;;;30.30;65.70;;;;;;5175986;23;20496;-86
2023/09/12 14:05:21;;;;;;;2.30;2.03;;;30.20;64.30;;;;;;4984548;28;20453;-85
2023/09/12 14:07:49;;;;;;;1.70;1.60;;;30.20;64.10;;;;;;4987295;28;20479;-87
2023/09/12 14:13:03;;;;;;;1.83;1.73;;;30.20;65.00;;;;;;5188019;23;20503;-86
2023/09/12 14:15:49;;;;;;;1.50;1.50;;;30.30;64.50;;;;;;5005380;28;20414;-83
2023/09/12 14:20:51;;;;;;;1.97;1.87;;;30.60;64.10;;;;;;5293539;23;20715;-82
2023/09/12 14:23:20;;;;;;;1.73;1.63;;;30.70;64.40;;;;;;4986513;28;20461;-81
2023/09/12 14:25:51;;;;;;;1.83;1.73;;;30.50;66.10;;;;;;4992543;28;20418;-87
2023/09/12 14:28:20;;;;;;;1.77;1.67;;;30.40;66.70;;;;;;4984825;28;20467;-83
2023/09/12 14:33:35;;;;;;;1.73;1.63;;;30.30;66.00;;;;;;5006095;28;20483;-84
2023/09/12 14:36:04;;;;;;;1.50;1.40;;;30.20;65.80;;;;;;5102528;23;20626;-82
2023/09/12 14:43:35;;;;;;;2.83;2.63;;;30.00;66.00;;;;;;5654907;23;20569;-83
2023/09/12 14:46:03;;;;;;;1.53;1.47;;;30.10;65.70;;;;;;5561473;23;20496;-87
2023/09/12 14:51:12;;;;;;;2.03;1.93;;;30.00;65.20;;;;;;5083764;23;20561;-85
2023/09/12 14:53:53;;;;;;;2.40;2.30;;;29.90;65.30;;;;;;5112033;23;20473;-84
2023/09/12 14:59:04;;;;;;;1.33;1.33;;;29.60;66.70;;;;;;5213382;23;20475;-84
2023/09/12 15:01:31;;;;;;;1.90;1.80;;;29.40;67.50;;;;;;5270861;23;20488;-87
2023/09/12 15:04:00;;;;;;;1.67;1.57;;;29.50;67.50;;;;;;5393562;23;20465;-84
2023/09/12 15:09:03;;;;;;;1.20;1.20;;;29.40;67.80;;;;;;5043635;23;20517;-88
2023/09/12 15:14:06;;;;;;;2.20;2.10;;;29.30;67.90;;;;;;5487706;23;20411;-80
2023/09/12 15:16:34;;;;;;;1.47;1.37;;;29.20;67.50;;;;;;5231788;23;20549;-88
2023/09/12 15:21:44;;;;;;;1.83;1.73;;;29.20;69.00;;;;;;5175269;23;20509;-86
2023/09/12 15:24:12;;;;;;;3.10;2.90;;;29.20;68.50;;;;;;5001568;28;20481;-87
2023/09/12 15:29:21;;;;;;;2.07;1.97;;;29.00;68.40;;;;;;5479389;23;20483;-87
2023/09/12 15:34:23;;;;;;;1.70;1.60;;;29.10;69.40;;;;;;5616833;23;20428;-89
2023/09/12 15:37:13;;;;;;;1.10;1.10;;;28.90;69.60;;;;;;5380747;23;20478;-86
2023/09/12 15:39:43;;;;;;;1.20;1.13;;;28.90;70.20;;;;;;5039805;23;20463;-82
2023/09/12 15:44:45;;;;;;;1.63;1.57;;;28.80;70.30;;;;;;5324652;23;20544;-85
2023/09/12 15:50:08;;;;;;;1.50;1.40;;;28.70;69.60;;;;;;5235113;23;20625;-86
2023/09/12 15:55:17;;;;;;;2.30;2.20;;;28.60;70.80;;;;;;5673490;23;20774;-83
2023/09/12 16:08:26;;;;;;;1.50;1.40;;;28.30;72.10;;;;;;5237170;23;20508;-83
2023/09/12 16:13:41;;;;;;;2.20;2.10;;;28.30;71.30;;;;;;5623960;23;20467;-83
2023/09/12 16:18:51;;;;;;;1.45;1.35;;;28.00;73.30;;;;;;5384324;23;20674;-85
2023/09/12 16:21:18;;;;;;;1.00;1.00;;;27.90;73.30;;;;;;5230799;23;20466;-83
2023/09/12 16:34:38;;;;;;;1.53;1.47;;;27.50;74.80;;;;;;5496506;23;20477;-85
2023/09/12 16:37:05;;;;;;;1.70;1.60;;;27.40;74.90;;;;;;5078863;23;20454;-83
2023/09/12 16:39:34;;;;;;;1.50;1.40;;;27.50;75.20;;;;;;5645953;23;20785;-87
2023/09/12 16:42:01;;;;;;;1.03;1.03;;;27.40;75.60;;;;;;5647267;23;20490;-82
2023/09/12 16:49:40;;;;;;;1.70;1.60;;;27.10;75.70;;;;;;5707906;22;21935;-86
2023/09/12 16:52:09;;;;;;;2.53;2.43;;;27.10;76.30;;;;;;5864709;23;20462;-88
2023/09/12 17:16:11;;;;;;;1.33;1.33;;;26.40;80.60;;;;;;5739002;23;20623;-84
2023/09/12 18:23:43;;;;;;;2.63;2.43;;;24.90;90.20;;;;;;5844965;23;20482;-85